< < Back
Terminal Aerodrome Forecast


Current Version              Previous Versions:   1  2  3  4  5  6  7  8  9  

Terminal Aerodrome Forecast

927
FTUS42 KCAE 241744
TAFAGS
TAF
KAGS 241744Z 2418/2518 12008KT P6SM SCT050 SCT200
     FM250000 VRB03KT P6SM SKC
     FM250700 VRB02KT P6SM SCT025
     FM251000 00000KT 5SM BR BKN015
     FM251400 12005KT P6SM BKN025
     FM251600 14007KT P6SM SCT035=



Latest METAR

083
SAUS70 KWBC 242300 RRD
MTRAGS
METAR KAGS 242253Z 15009KT 10SM SCT065 28/13 A3024 RMK AO2 SLP239
T02780133


USA.gov is the U.S. government's official web portal to all federal, state and local government web resources and services.